createdAt,value
2023-03-08T00:00:42.757Z,-3.04
2023-03-08T00:03:16.201Z,-3.10
2023-03-08T00:05:45.629Z,-3.23
2023-03-08T00:08:17.474Z,-3.87
2023-03-08T00:10:47.078Z,-2.92
2023-03-08T00:13:17.147Z,-2.78
2023-03-08T00:15:47.974Z,-2.34
2023-03-08T00:18:18.227Z,-2.15
2023-03-08T00:20:47.547Z,-1.27
2023-03-08T00:23:16.833Z,-1.46
2023-03-08T00:25:46.882Z,-1.03
2023-03-08T00:28:16.550Z,-0.85
2023-03-08T00:30:45.870Z,-0.73
2023-03-08T00:33:16.166Z,-0.70
2023-03-08T00:35:55.136Z,-0.67
2023-03-08T00:38:26.248Z,-0.66
2023-03-08T00:40:55.915Z,-0.67
2023-03-08T00:43:27.026Z,-0.68
2023-03-08T00:45:56.853Z,-0.65
2023-03-08T00:48:29.850Z,-0.58
2023-03-08T00:51:02.280Z,-0.61
2023-03-08T00:53:32.594Z,-0.60
2023-03-08T00:56:01.936Z,-0.61
2023-03-08T00:58:32.600Z,-0.55
2023-03-08T01:01:09.755Z,-0.58
2023-03-08T01:03:39.871Z,-0.56
2023-03-08T01:06:11.142Z,-0.51
2023-03-08T01:08:43.570Z,-0.52
2023-03-08T01:11:28.990Z,-0.51
2023-03-08T01:13:58.715Z,-0.59
2023-03-08T01:16:31.455Z,-0.80
2023-03-08T01:19:02.746Z,-0.74
2023-03-08T01:21:32.858Z,-0.79
2023-03-08T01:24:02.559Z,-0.83
2023-03-08T01:26:31.852Z,-0.88
2023-03-08T01:29:01.976Z,-0.85
2023-03-08T01:31:32.251Z,-1.12
2023-03-08T01:34:01.688Z,-0.94
2023-03-08T01:36:31.696Z,-0.94
2023-03-08T01:39:02.804Z,-0.89
2023-03-08T01:41:35.438Z,-1.08
2023-03-08T01:44:04.826Z,-1.22
2023-03-08T01:46:37.075Z,-1.38
2023-03-08T01:49:12.519Z,-1.49
2023-03-08T01:52:04.036Z,-1.70
2023-03-08T01:54:43.262Z,-1.83
2023-03-08T01:57:21.787Z,-1.70
2023-03-08T01:59:54.269Z,-2.14
2023-03-08T02:02:29.948Z,-3.67
2023-03-08T02:05:00.154Z,-2.87
2023-03-08T02:07:32.499Z,-3.14
2023-03-08T02:10:02.833Z,-3.86
2023-03-08T02:12:33.550Z,-4.56
2023-03-08T02:15:06.150Z,-4.69
2023-03-08T02:17:40.011Z,-4.43
2023-03-08T02:20:34.798Z,-4.59
2023-03-08T02:23:26.408Z,-3.69
2023-03-08T02:26:03.865Z,-4.99
2023-03-08T02:28:34.613Z,-4.57
2023-03-08T02:31:04.124Z,-4.89
2023-03-08T02:33:35.772Z,-5.27
2023-03-08T02:36:07.008Z,-5.79
2023-03-08T02:38:38.926Z,-5.83
2023-03-08T02:41:08.048Z,-6.14
2023-03-08T02:43:38.432Z,-6.01
2023-03-08T02:46:18.235Z,-5.74
2023-03-08T02:48:50.571Z,-6.05
2023-03-08T02:51:21.366Z,-5.96
2023-03-08T02:53:52.162Z,-4.75
2023-03-08T02:56:24.105Z,-5.57
2023-03-08T02:58:53.833Z,-5.99
2023-03-08T03:01:24.271Z,-5.65
2023-03-08T03:03:56.221Z,-5.73
2023-03-08T03:06:25.787Z,-5.92
2023-03-08T03:08:56.980Z,-6.03
2023-03-08T03:11:26.789Z,-5.97
2023-03-08T03:14:00.622Z,-5.78
2023-03-08T03:16:32.609Z,-5.89
2023-03-08T03:19:02.466Z,-5.91
2023-03-08T03:21:31.969Z,-5.85
2023-03-08T03:24:02.305Z,-5.79
2023-03-08T03:26:32.442Z,-5.85
2023-03-08T03:29:02.591Z,-5.83
2023-03-08T03:31:33.495Z,-5.85
2023-03-08T03:34:03.560Z,-5.80
2023-03-08T03:36:35.220Z,-5.65
2023-03-08T03:39:05.463Z,-5.67
2023-03-08T03:41:36.581Z,-5.72
2023-03-08T03:44:06.610Z,-5.71
2023-03-08T03:46:36.908Z,-5.70
2023-03-08T03:49:07.658Z,-5.42
2023-03-08T03:51:37.454Z,-5.60
2023-03-08T03:54:09.244Z,-5.62
2023-03-08T03:56:43.065Z,-4.98
2023-03-08T03:59:12.776Z,-5.15
2023-03-08T04:01:43.711Z,-4.53
2023-03-08T04:04:13.917Z,-3.59
2023-03-08T04:06:43.991Z,-3.94
2023-03-08T04:09:18.141Z,-3.72
2023-03-08T04:11:48.135Z,-5.02
2023-03-08T04:14:18.801Z,-5.33
2023-03-08T04:16:48.261Z,-5.39
2023-03-08T04:19:19.169Z,-5.37
2023-03-08T04:21:50.007Z,-4.17
2023-03-08T04:24:21.291Z,-4.57
2023-03-08T04:26:51.257Z,-4.88
2023-03-08T04:29:21.758Z,-5.12
2023-03-08T04:31:52.195Z,-5.13
2023-03-08T04:34:22.468Z,-4.43
2023-03-08T04:36:52.335Z,-4.77
2023-03-08T04:39:23.515Z,-4.52
2023-03-08T04:41:53.203Z,-4.91
2023-03-08T04:44:26.532Z,-4.85
2023-03-08T04:46:56.765Z,-4.38
2023-03-08T04:49:27.593Z,-4.56
2023-03-08T04:51:57.698Z,-4.93
2023-03-08T04:54:28.211Z,-4.79
2023-03-08T04:56:59.824Z,-4.04
2023-03-08T04:59:29.905Z,-3.86
2023-03-08T05:02:00.242Z,-4.53
2023-03-08T05:04:31.134Z,-4.70
2023-03-08T05:07:01.085Z,-4.69
2023-03-08T05:09:31.930Z,-4.75
2023-03-08T05:12:01.247Z,-4.73
2023-03-08T05:14:33.487Z,-4.65
2023-03-08T05:17:07.055Z,-4.28
2023-03-08T05:19:44.962Z,-4.56
2023-03-08T05:22:18.554Z,-4.13
2023-03-08T05:24:51.856Z,-4.41
2023-03-08T05:30:13.669Z,-4.27
2023-03-08T05:32:43.776Z,-3.60
2023-03-08T05:35:13.903Z,-3.62
2023-03-08T05:37:43.476Z,-3.80
2023-03-08T05:40:14.120Z,-3.73
2023-03-08T05:42:45.170Z,-3.31
2023-03-08T05:45:16.498Z,-3.09
2023-03-08T05:47:50.135Z,-2.91
2023-03-08T05:50:20.135Z,-2.64
2023-03-08T05:52:52.294Z,-2.99
2023-03-08T05:55:24.939Z,-1.63
2023-03-08T05:57:55.833Z,-2.54
2023-03-08T06:00:45.208Z,-2.48
2023-03-08T06:03:16.527Z,-2.25
2023-03-08T06:05:46.337Z,-1.84
2023-03-08T06:08:16.238Z,-2.65
2023-03-08T06:10:45.693Z,-2.46
2023-03-08T06:13:17.310Z,-2.10
2023-03-08T06:15:46.851Z,-2.06
2023-03-08T06:18:17.259Z,-2.41
2023-03-08T06:20:55.864Z,-1.80
2023-03-08T06:23:25.645Z,-2.16
2023-03-08T06:25:55.669Z,-1.52
2023-03-08T06:28:26.851Z,-1.34
2023-03-08T06:30:56.688Z,-1.79
2023-03-08T06:33:29.299Z,-2.27
2023-03-08T06:36:01.174Z,-1.38
2023-03-08T06:38:33.539Z,-1.88
2023-03-08T06:41:04.227Z,-1.93
2023-03-08T06:43:34.946Z,-0.84
2023-03-08T06:46:07.298Z,-1.87
2023-03-08T06:48:37.852Z,-1.98
2023-03-08T06:51:10.113Z,-2.11
2023-03-08T06:53:41.114Z,-1.72
2023-03-08T06:56:14.835Z,-1.31
2023-03-08T06:58:45.377Z,-1.24
2023-03-08T07:01:25.644Z,-1.52
2023-03-08T07:03:56.200Z,-1.16
2023-03-08T07:06:25.570Z,-1.22
2023-03-08T07:08:55.012Z,-1.13
2023-03-08T07:11:32.243Z,-0.50
2023-03-08T07:14:01.773Z,-1.04
2023-03-08T07:16:31.760Z,-0.35
2023-03-08T07:19:03.747Z,-0.59
2023-03-08T07:21:34.138Z,-0.80
2023-03-08T07:24:03.291Z,-0.57
2023-03-08T07:26:33.526Z,-0.69
2023-03-08T07:29:05.001Z,-0.59
2023-03-08T07:31:36.955Z,-0.85
2023-03-08T07:34:06.969Z,-0.48
2023-03-08T07:36:36.430Z,-0.46
2023-03-08T07:39:06.221Z,-0.20
2023-03-08T07:41:37.085Z,-0.34
2023-03-08T07:44:07.335Z,-0.28
2023-03-08T07:46:37.348Z,-0.21
2023-03-08T07:49:11.236Z,-0.11
2023-03-08T07:51:42.418Z,-0.19
2023-03-08T07:54:16.229Z,-0.16
2023-03-08T07:56:46.234Z,0.06
2023-03-08T07:59:16.075Z,0.30
2023-03-08T08:01:45.866Z,0.43
2023-03-08T08:04:16.297Z,0.52
2023-03-08T08:06:45.865Z,0.59
2023-03-08T08:09:15.614Z,0.55
2023-03-08T08:11:45.677Z,0.66
2023-03-08T08:14:15.637Z,0.76
2023-03-08T08:16:46.866Z,0.62
2023-03-08T08:19:18.161Z,0.54
2023-03-08T08:21:48.634Z,1.06
2023-03-08T08:24:18.770Z,0.86
2023-03-08T08:26:47.980Z,0.63
2023-03-08T08:29:17.242Z,0.52
2023-03-08T08:31:47.312Z,0.83
2023-03-08T08:34:17.345Z,1.13
2023-03-08T08:36:47.547Z,0.99
2023-03-08T08:39:17.295Z,1.16
2023-03-08T08:41:49.778Z,0.98
2023-03-08T08:44:19.561Z,1.34
2023-03-08T08:46:49.651Z,0.93
2023-03-08T08:49:22.359Z,0.67
2023-03-08T08:51:54.657Z,0.60
2023-03-08T08:54:23.847Z,0.41
2023-03-08T08:56:53.560Z,0.50
2023-03-08T08:59:23.492Z,0.75
2023-03-08T09:01:52.970Z,0.71
2023-03-08T09:04:24.788Z,1.06
2023-03-08T09:06:54.850Z,0.98
2023-03-08T09:09:29.817Z,0.73
2023-03-08T09:11:59.157Z,0.81
2023-03-08T09:14:29.037Z,0.55
2023-03-08T09:16:58.625Z,0.51
2023-03-08T09:19:29.469Z,0.56
2023-03-08T09:21:59.146Z,0.43
2023-03-08T09:24:30.118Z,1.26
2023-03-08T09:27:00.032Z,1.11
2023-03-08T09:29:29.890Z,1.44
2023-03-08T09:32:01.643Z,1.11
2023-03-08T09:34:34.048Z,1.00
2023-03-08T09:37:03.819Z,1.70
2023-03-08T09:39:34.638Z,1.70
2023-03-08T09:42:28.157Z,1.25
2023-03-08T09:45:08.052Z,1.41
2023-03-08T09:47:47.210Z,1.91
2023-03-08T09:50:22.502Z,2.33
2023-03-08T09:53:02.833Z,2.08
2023-03-08T09:55:39.739Z,2.40
2023-03-08T09:58:19.535Z,1.88
2023-03-08T10:00:49.892Z,1.46
2023-03-08T10:03:32.043Z,2.02
2023-03-08T10:06:09.287Z,2.03
2023-03-08T10:09:05.876Z,2.27
2023-03-08T10:11:46.130Z,1.64
2023-03-08T10:14:24.750Z,1.38
2023-03-08T10:17:01.777Z,1.57
2023-03-08T10:19:43.757Z,0.93
2023-03-08T10:22:27.329Z,0.96
2023-03-08T10:24:57.889Z,1.38
2023-03-08T10:27:32.890Z,1.19
2023-03-08T10:31:07.204Z,1.72
2023-03-08T10:33:16.293Z,1.80
2023-03-08T10:36:13.215Z,2.02
2023-03-08T10:38:43.223Z,1.57
2023-03-08T10:41:18.511Z,1.86
2023-03-08T10:43:51.740Z,1.80
2023-03-08T10:46:23.645Z,1.57
2023-03-08T10:48:53.291Z,2.03
2023-03-08T10:51:31.200Z,2.18
2023-03-08T10:54:03.786Z,1.72
2023-03-08T10:56:53.696Z,1.78
2023-03-08T10:59:32.884Z,1.30
2023-03-08T11:02:24.575Z,1.35
2023-03-08T11:05:00.129Z,1.25
2023-03-08T11:07:33.589Z,0.96
2023-03-08T11:10:19.386Z,1.06
2023-03-08T11:12:49.160Z,0.98
2023-03-08T11:15:23.650Z,0.62
2023-03-08T11:18:08.029Z,1.10
2023-03-08T11:20:46.248Z,0.80
2023-03-08T11:23:22.824Z,0.78
2023-03-08T11:25:56.807Z,0.75
2023-03-08T11:28:35.364Z,0.72
2023-03-08T11:31:15.958Z,0.52
2023-03-08T11:34:08.689Z,0.40
2023-03-08T11:36:45.389Z,0.31
2023-03-08T11:39:29.653Z,0.34
2023-03-08T11:42:16.525Z,0.33
2023-03-08T11:45:07.289Z,0.36
2023-03-08T11:48:01.372Z,0.34
2023-03-08T11:50:43.127Z,0.49
2023-03-08T11:53:33.639Z,0.53
2023-03-08T11:56:13.648Z,0.44
2023-03-08T11:58:55.844Z,0.17
2023-03-08T12:01:35.874Z,0.07
2023-03-08T12:04:13.913Z,0.14
2023-03-08T12:06:45.705Z,0.20
2023-03-08T12:09:39.748Z,0.20
2023-03-08T12:12:22.668Z,0.11
2023-03-08T12:15:02.753Z,0.15
2023-03-08T12:17:39.993Z,0.12
2023-03-08T12:20:23.277Z,0.17
2023-03-08T12:23:09.711Z,0.34
2023-03-08T12:25:42.897Z,0.23
2023-03-08T12:28:26.247Z,0.22
2023-03-08T12:31:29.057Z,0.30
2023-03-08T12:34:00.671Z,0.18
2023-03-08T12:36:40.623Z,0.23
2023-03-08T12:39:41.570Z,0.20
2023-03-08T12:42:12.583Z,0.23
2023-03-08T12:44:42.260Z,0.13
2023-03-08T12:47:23.305Z,0.14
2023-03-08T12:49:59.825Z,0.09
2023-03-08T12:52:36.114Z,0.12
2023-03-08T12:55:18.032Z,0.04
2023-03-08T12:57:52.770Z,0.18
2023-03-08T13:00:26.144Z,0.06
2023-03-08T13:03:07.187Z,0.02
2023-03-08T13:05:39.770Z,0.07
2023-03-08T13:08:18.344Z,-0.01
2023-03-08T13:10:51.253Z,0.02
2023-03-08T13:13:41.480Z,-0.03
2023-03-08T13:16:31.900Z,-0.12
2023-03-08T13:19:24.239Z,-0.18
2023-03-08T13:22:13.609Z,-0.16
2023-03-08T13:24:55.342Z,-0.17
2023-03-08T13:27:59.382Z,-0.21
2023-03-08T13:30:52.863Z,-0.29
2023-03-08T13:33:27.990Z,-0.18
2023-03-08T13:36:05.537Z,-0.17
2023-03-08T13:38:37.488Z,-0.29
2023-03-08T13:41:07.622Z,-0.31
2023-03-08T13:43:37.567Z,-0.28
2023-03-08T13:46:21.269Z,-0.27
2023-03-08T13:48:50.784Z,-0.26
2023-03-08T13:51:21.136Z,-0.27
2023-03-08T13:53:50.806Z,-0.29
2023-03-08T13:56:26.695Z,-0.15
2023-03-08T13:59:00.550Z,-0.26
2023-03-08T14:01:31.733Z,-0.25
2023-03-08T14:04:12.937Z,-0.29
2023-03-08T14:06:51.080Z,-0.32
2023-03-08T14:09:21.406Z,-0.25
2023-03-08T14:12:09.578Z,-0.28
2023-03-08T14:14:44.694Z,-0.35
2023-03-08T14:17:25.118Z,-0.58
2023-03-08T14:19:59.711Z,-0.27
2023-03-08T14:22:39.791Z,-0.25
2023-03-08T14:25:24.241Z,-0.31
2023-03-08T14:27:55.044Z,-0.42
2023-03-08T14:30:27.373Z,-0.26
2023-03-08T14:33:30.632Z,-0.36
2023-03-08T14:36:06.987Z,-0.49
2023-03-08T14:38:37.884Z,-0.29
2023-03-08T14:41:08.112Z,-0.32
2023-03-08T14:43:38.319Z,-0.44
2023-03-08T14:46:12.102Z,-0.45
2023-03-08T14:48:44.255Z,-0.30
2023-03-08T14:51:22.121Z,-0.31
2023-03-08T14:54:03.960Z,-0.45
2023-03-08T14:56:35.526Z,-0.32
2023-03-08T14:59:08.056Z,-0.36
2023-03-08T15:01:41.218Z,-0.44
2023-03-08T15:04:21.584Z,-0.37
2023-03-08T15:06:54.538Z,-0.44
2023-03-08T15:09:24.159Z,-0.46
2023-03-08T15:11:54.703Z,-0.35
2023-03-08T15:14:24.213Z,-0.54
2023-03-08T15:16:56.050Z,-0.40
2023-03-08T15:19:26.028Z,-0.67
2023-03-08T15:21:55.969Z,-0.59
2023-03-08T15:24:25.192Z,-0.39
2023-03-08T15:26:56.681Z,-0.41
2023-03-08T15:29:30.495Z,-0.54
2023-03-08T15:32:01.039Z,-0.30
2023-03-08T15:34:30.783Z,-0.34
2023-03-08T15:37:00.134Z,-0.39
2023-03-08T15:39:30.313Z,-0.36
2023-03-08T15:42:01.231Z,-0.32
2023-03-08T15:44:30.607Z,-0.42
2023-03-08T15:47:02.362Z,-0.56
2023-03-08T15:49:31.443Z,-0.48
2023-03-08T15:52:01.272Z,-0.35
2023-03-08T15:54:32.792Z,-0.37
2023-03-08T15:57:03.190Z,-0.39
2023-03-08T15:59:32.480Z,-0.38
2023-03-08T16:02:03.473Z,-0.42
2023-03-08T16:04:35.373Z,-0.42
2023-03-08T16:07:05.113Z,-0.35
2023-03-08T16:09:35.106Z,-0.34
2023-03-08T16:12:04.355Z,-0.43
2023-03-08T16:14:33.689Z,-0.35
2023-03-08T16:17:08.951Z,-0.50
2023-03-08T16:19:38.379Z,-0.34
2023-03-08T16:22:09.197Z,-0.51
2023-03-08T16:24:38.596Z,-0.43
2023-03-08T16:27:08.628Z,-0.36
2023-03-08T16:29:38.697Z,-0.45
2023-03-08T16:32:08.697Z,-0.58
2023-03-08T16:34:40.792Z,-0.29
2023-03-08T16:37:10.545Z,-0.44
2023-03-08T16:39:40.661Z,-0.51
2023-03-08T16:42:14.375Z,-0.40
2023-03-08T16:44:49.191Z,-0.48
2023-03-08T16:47:19.787Z,-0.35
2023-03-08T16:52:32.442Z,-0.40
2023-03-08T16:55:02.058Z,-0.40
2023-03-08T16:57:31.550Z,-0.54
2023-03-08T17:00:03.443Z,-0.45
2023-03-08T17:02:32.540Z,-0.47
2023-03-08T17:05:03.781Z,-0.32
2023-03-08T17:07:33.523Z,-0.37
2023-03-08T17:10:03.142Z,-0.37
2023-03-08T17:12:33.028Z,-0.30
2023-03-08T17:15:05.265Z,-0.28
2023-03-08T17:17:35.452Z,-0.32
2023-03-08T17:20:06.286Z,-0.29
2023-03-08T17:22:36.935Z,-0.22
2023-03-08T17:25:07.409Z,-0.28
2023-03-08T17:27:47.331Z,-0.17
2023-03-08T17:30:17.147Z,-0.28
2023-03-08T17:32:46.430Z,-0.37
2023-03-08T17:35:16.045Z,-0.15
2023-03-08T17:37:45.947Z,-0.23
2023-03-08T17:40:15.296Z,-0.25
2023-03-08T17:42:48.440Z,-0.23
2023-03-08T17:45:19.405Z,-0.26
2023-03-08T17:47:49.418Z,-0.35
2023-03-08T17:50:20.016Z,-0.26
2023-03-08T17:52:49.321Z,-0.32
2023-03-08T17:55:19.128Z,-0.44
2023-03-08T17:57:48.543Z,-0.34
2023-03-08T18:00:20.349Z,-0.33
2023-03-08T18:02:50.232Z,-0.11
2023-03-08T18:05:19.860Z,-0.12
2023-03-08T18:07:50.065Z,-0.21
2023-03-08T18:10:19.567Z,-0.27
2023-03-08T18:12:50.289Z,-0.36
2023-03-08T18:15:20.449Z,-0.29
2023-03-08T18:17:52.231Z,-0.27
2023-03-08T18:20:24.158Z,-0.05
2023-03-08T18:22:54.320Z,-0.13
2023-03-08T18:25:24.455Z,-0.12
2023-03-08T18:27:53.890Z,0.00
2023-03-08T18:30:24.781Z,-0.07
2023-03-08T18:32:54.320Z,-0.07
2023-03-08T18:35:24.477Z,-0.01
2023-03-08T18:37:53.764Z,-0.14
2023-03-08T18:40:24.219Z,-0.07
2023-03-08T18:42:54.386Z,-0.07
2023-03-08T18:45:24.481Z,-0.12
2023-03-08T18:47:54.297Z,0.08
2023-03-08T18:50:25.853Z,0.09
2023-03-08T18:52:56.384Z,0.03
2023-03-08T18:55:28.545Z,0.05
2023-03-08T18:57:58.663Z,0.11
2023-03-08T19:00:28.605Z,0.06
2023-03-08T19:02:58.314Z,-0.02
2023-03-08T19:05:27.612Z,0.04
2023-03-08T19:07:58.799Z,0.14
2023-03-08T19:10:30.150Z,0.08
2023-03-08T19:13:06.962Z,0.15
2023-03-08T19:15:39.087Z,0.17
2023-03-08T19:18:10.912Z,0.15
2023-03-08T19:20:42.761Z,0.17
2023-03-08T19:23:20.525Z,0.20
2023-03-08T19:26:09.451Z,0.18
2023-03-08T19:28:41.832Z,0.22
2023-03-08T19:31:18.046Z,0.16
2023-03-08T19:33:50.684Z,0.23
2023-03-08T19:36:22.539Z,0.22
2023-03-08T19:38:53.002Z,0.17
2023-03-08T19:41:22.057Z,0.17
2023-03-08T19:43:52.032Z,0.22
2023-03-08T19:46:22.455Z,0.20
2023-03-08T19:48:52.687Z,0.21
2023-03-08T19:51:21.999Z,0.24
2023-03-08T19:53:51.316Z,0.19
2023-03-08T19:56:21.902Z,0.24
2023-03-08T19:58:52.099Z,0.20
2023-03-08T20:01:22.094Z,0.20
2023-03-08T20:03:52.225Z,0.22
2023-03-08T20:06:24.936Z,0.22
2023-03-08T20:08:56.163Z,0.29
2023-03-08T20:11:25.855Z,0.30
2023-03-08T20:13:55.404Z,0.32
2023-03-08T20:16:25.925Z,0.26
2023-03-08T20:18:58.129Z,0.21
2023-03-08T20:21:32.087Z,0.19
2023-03-08T20:24:01.621Z,0.11
2023-03-08T20:26:33.716Z,0.22
2023-03-08T20:29:04.437Z,0.13
2023-03-08T20:31:34.230Z,0.10
2023-03-08T20:34:04.573Z,0.06
2023-03-08T20:36:33.772Z,0.02
2023-03-08T20:39:04.088Z,0.00
2023-03-08T20:41:33.308Z,-0.13
2023-03-08T20:44:04.179Z,-0.14
2023-03-08T20:46:34.092Z,-0.18
2023-03-08T20:49:04.430Z,-0.32
2023-03-08T20:51:33.619Z,-0.34
2023-03-08T20:54:03.391Z,-0.42
2023-03-08T20:56:32.884Z,-0.41
2023-03-08T20:59:03.057Z,-0.39
2023-03-08T21:01:34.519Z,-0.35
2023-03-08T21:04:05.627Z,-0.38
2023-03-08T21:06:35.855Z,-0.42
2023-03-08T21:09:05.642Z,-0.45
2023-03-08T21:11:35.413Z,-0.58
2023-03-08T21:14:05.591Z,-0.58
2023-03-08T21:16:37.107Z,-0.64
2023-03-08T21:19:08.205Z,-0.63
2023-03-08T21:21:39.891Z,-0.63
2023-03-08T21:24:15.516Z,-0.73
2023-03-08T21:26:45.610Z,-0.83
2023-03-08T21:29:18.452Z,-0.89
2023-03-08T21:31:50.226Z,-0.95
2023-03-08T21:34:21.253Z,-0.95
2023-03-08T21:36:50.423Z,-1.04
2023-03-08T21:39:20.794Z,-1.15
2023-03-08T21:41:55.378Z,-1.29
2023-03-08T21:44:26.352Z,-1.34
2023-03-08T21:46:56.590Z,-1.46
2023-03-08T21:49:29.658Z,-1.56
2023-03-08T21:52:00.845Z,-1.50
2023-03-08T21:54:32.105Z,-1.71
2023-03-08T21:57:01.877Z,-1.81
2023-03-08T21:59:32.768Z,-2.01
2023-03-08T22:02:02.329Z,-2.00
2023-03-08T22:04:32.446Z,-2.10
2023-03-08T22:07:01.984Z,-2.14
2023-03-08T22:09:32.242Z,-2.24
2023-03-08T22:12:04.319Z,-2.22
2023-03-08T22:14:35.042Z,-2.21
2023-03-08T22:17:04.280Z,-2.34
2023-03-08T22:19:35.808Z,-2.44
2023-03-08T22:22:06.466Z,-2.21
2023-03-08T22:24:36.698Z,-2.57
2023-03-08T22:27:06.648Z,-2.36
2023-03-08T22:29:36.398Z,-2.40
2023-03-08T22:32:07.097Z,-2.52
2023-03-08T22:34:36.756Z,-2.54
2023-03-08T22:37:06.897Z,-2.53
2023-03-08T22:39:39.264Z,-2.53
2023-03-08T22:42:08.576Z,-2.56
2023-03-08T22:44:38.439Z,-2.70
2023-03-08T22:47:08.044Z,-2.66
2023-03-08T22:49:38.957Z,-2.57
2023-03-08T22:52:10.244Z,-2.90
2023-03-08T22:54:41.249Z,-2.86
2023-03-08T22:57:10.741Z,-2.90
2023-03-08T22:59:41.219Z,-2.46
2023-03-08T23:02:10.433Z,-3.00
2023-03-08T23:04:40.418Z,-3.23
2023-03-08T23:07:10.510Z,-2.93
2023-03-08T23:09:40.307Z,-3.37
2023-03-08T23:12:10.646Z,-3.10
2023-03-08T23:14:39.979Z,-3.27
2023-03-08T23:17:09.912Z,-3.03
2023-03-08T23:19:39.983Z,-3.11
2023-03-08T23:22:09.873Z,-2.70
2023-03-08T23:24:39.309Z,-2.41
2023-03-08T23:27:10.857Z,-2.84
2023-03-08T23:29:40.658Z,-3.23
2023-03-08T23:32:17.403Z,-3.48
2023-03-08T23:34:48.165Z,-2.90
2023-03-08T23:37:17.972Z,-3.06
2023-03-08T23:39:47.802Z,-2.87
2023-03-08T23:42:17.655Z,-3.57
2023-03-08T23:44:48.697Z,-3.59
2023-03-08T23:47:17.901Z,-3.72
2023-03-08T23:49:50.564Z,-3.63
2023-03-08T23:52:21.920Z,-2.57
2023-03-08T23:54:53.630Z,-3.03
2023-03-08T23:57:23.311Z,-3.51
2023-03-08T23:59:52.959Z,-3.01
